Flight Track Log - Related Links

Times and Time Zones

All times are in EDT time to prevent confusion due to time zone crossing. See the KLM1000 flight status page for this flight to view local times or setup timezone preferences in your user account.

Time Position Orientation Groundspeed Altitude Reporting Facility
EDT Latitude Longitude Course Direction KTS MPH feet Rate Location/Type
Wed 01:44:15 AM 51.4780 -0.4930 270° West 175 201 900  Level FlightAware ADS-B
Wed 01:44:17 AM 51.4776 -0.4958 267° West 188 216 900 2,640 Level FlightAware UK
Wed 01:44:40 AM 51.4768 -0.5244 266° West 171 197 2,000 2,667 Climbing FlightAware ADS-B
Wed 01:44:44 AM 51.4761 -0.5294 257° West 174 200 2,100 2,000 Climbing FlightAware ADS-B
Wed 01:44:49 AM 51.4746 -0.5355 248° West 175 201 2,300 2,000 Climbing FlightAware ADS-B
Wed 01:44:53 AM 51.4734 -0.5403 248° West 178 205 2,400 1,714 Climbing FlightAware ADS-B
Wed 01:44:56 AM 51.4720 -0.5437 236° Southwest 180 207 2,500 1,714 Climbing FlightAware ADS-B
Wed 01:45:00 AM 51.4698 -0.5481 231° Southwest 183 211 2,600 1,500 Climbing FlightAware ADS-B
Wed 01:45:04 AM 51.4675 -0.5521 228° Southwest 187 215 2,700 2,250 Climbing FlightAware ADS-B
Wed 01:45:08 AM 51.4649 -0.5556 220° Southwest 186 214 2,900 2,250 Climbing FlightAware ADS-B
Wed 01:45:12 AM 51.4623 -0.5587 216° Southwest 187 215 3,000 1,714 Climbing FlightAware ADS-B
Wed 01:45:15 AM 51.4596 -0.5606 204° Southwest 189 217 3,100 1,714 Climbing FlightAware ADS-B
Wed 01:45:19 AM 51.4566 -0.5627 203° Southwest 190 219 3,200 1,714 Climbing FlightAware ADS-B
Wed 01:45:22 AM 51.4538 -0.5638 194° South 194 223 3,300 1,714 Climbing FlightAware ADS-B
Wed 01:45:26 AM 51.4503 -0.5648 190° South 199 229 3,400 857 Climbing FlightAware ADS-B
Wed 01:45:29 AM 51.4472 -0.5650 182° South 203 234 3,400 857 Level FlightAware ADS-B
Wed 01:45:33 AM 51.4438 -0.5646 176° South 208 239 3,500 1,714 Climbing FlightAware ADS-B
Wed 01:45:36 AM 51.4409 -0.5637 170° South 211 243 3,600 1,714 Climbing FlightAware ADS-B
Wed 01:45:40 AM 51.4373 -0.5619 162° South 215 247 3,700 857 Climbing FlightAware ADS-B
Wed 01:45:43 AM 51.4339 -0.5598 160° South 222 255 3,700 857 Level FlightAware ADS-B
Wed 01:45:47 AM 51.4307 -0.5563 146° Southeast 227 261 3,800 1,333 Climbing FlightAware ADS-B
Wed 01:45:52 AM 51.4268 -0.5507 138° Southeast 233 268 3,900 1,333 Climbing FlightAware ADS-B
Wed 01:45:56 AM 51.4241 -0.5453 129° Southeast 238 274 4,000 1,500 Climbing FlightAware ADS-B
Wed 01:46:00 AM 51.4218 -0.5396 123° Southeast 242 278 4,100 1,500 Climbing FlightAware ADS-B
Wed 01:46:12 AM 51.4134 -0.5216 127° Southeast 252 290 4,400 1,765 Climbing FlightAware ADS-B
Wed 01:46:17 AM 51.4102 -0.5139 124° Southeast 256 295 4,600 1,636 Climbing FlightAware ADS-B
Wed 01:46:23 AM 51.4057 -0.5049 129° Southeast 261 300 4,700 1,000 Climbing FlightAware ADS-B
Wed 01:46:29 AM 51.4002 -0.4965 136° Southeast 265 305 4,800 1,143 Climbing FlightAware ADS-B
Wed 01:46:44 AM 51.3866 -0.4759 137° Southeast 272 313 5,100 938 Climbing FlightAware ADS-B
Wed 01:47:01 AM 51.3711 -0.4521 136° Southeast 277 319 5,300 938 Climbing FlightAware ADS-B
Wed 01:47:16 AM 51.3570 -0.4308 137° Southeast 277 319 5,600 1,200 Climbing FlightAware ADS-B
Wed 01:47:31 AM 51.3431 -0.4095 136° Southeast 279 321 5,900 800 Climbing FlightAware ADS-B
Wed 01:47:46 AM 51.3295 -0.3879 135° Southeast 284 327 6,000 632 Climbing FlightAware ADS-B
Wed 01:47:50 AM 51.3259 -0.3816 132° Southeast 286 329 6,100 1,333 Climbing FlightAware ADS-B
Wed 01:47:55 AM 51.3215 -0.3732 130° Southeast 289 333 6,200 1,800 Climbing FlightAware ADS-B
Wed 01:48:00 AM 51.3186 -0.3639 116° Southeast 290 334 6,400 2,250 Climbing FlightAware ADS-B
Wed 01:48:03 AM 51.3169 -0.3579 114° Southeast 292 336 6,500 2,571 Climbing FlightAware ADS-B
Wed 01:48:07 AM 51.3155 -0.3497 105° East 295 339 6,700 2,667 Climbing FlightAware ADS-B
Wed 01:48:12 AM 51.3142 -0.3390 101° East 295 339 6,900 3,000 Climbing FlightAware ADS-B
Wed 01:48:15 AM 51.3139 -0.3326 94° East 295 339 7,100 3,429 Climbing FlightAware ADS-B
Wed 01:48:19 AM 51.3141 -0.3239 88° East 294 338 7,300 3,429 Climbing FlightAware ADS-B
Wed 01:48:22 AM 51.3146 -0.3174 83° East 293 337 7,500 3,176 Climbing FlightAware ADS-B
Wed 01:48:36 AM 51.3175 -0.2875 81° East 292 336 8,200 2,857 Climbing FlightAware ADS-B
Wed 01:48:43 AM 51.3183 -0.2724 85° East 295 339 8,500 2,087 Climbing FlightAware ADS-B
Wed 01:48:59 AM 51.3182 -0.2372 90° East 302 348 9,000 2,323 Climbing FlightAware ADS-B
Wed 01:49:14 AM 51.3176 -0.2032 92° East 307 353 9,700 2,478 Climbing FlightAware ADS-B
Wed 01:49:45 AM 51.3165 -0.1320 91° East 319 367 10,900 1,789 Climbing FlightAware ADS-B
Wed 01:50:11 AM 51.3154 -0.0666 92° East 356 410 11,400 1,821 Climbing FlightAware ADS-B
Wed 01:50:41 AM 51.3142 0.0134 91° East 366 421 12,600 2,483 Climbing FlightAware ADS-B
Wed 01:51:09 AM 51.3117 0.0903 93° East 376 433 13,800 2,700 Climbing FlightAware ADS-B
Wed 01:51:41 AM 51.3050 0.1793 97° East 383 441 15,300 2,906 Climbing FlightAware ADS-B
Wed 01:52:13 AM 51.2981 0.2699 97° East 384 442 16,900 2,762 Climbing FlightAware ADS-B
Wed 01:52:44 AM 51.2915 0.3588 97° East 396 456 18,200 2,345 Climbing FlightAware ADS-B
Wed 01:53:40 AM 51.2790 0.5210 97° East 412 474 20,300 2,276 Climbing FlightAware ADS-B
Wed 01:53:42 AM 51.2782 0.5310 97° East 402 463 20,400 1,875 Climbing FlightAware UK
Wed 01:54:12 AM 51.2711 0.6234 97° East 412 474 21,300 2,204 Climbing FlightAware UK
Wed 01:54:31 AM 51.2680 0.6730 97° East 422 486 22,200 1,700 Climbing FlightAware ADS-B
Wed 01:55:12 AM 51.2603 0.8079 97° East 404 465 23,000 1,143 Climbing FlightAware UK
Wed 01:55:13 AM 51.2610 0.8030 97° East 411 473 23,000  Level FlightAware ADS-B
Wed 01:55:34 AM 51.2565 0.8747 96° East 23,000  Level FlightAware ADS-B
Wed 01:55:41 AM 51.2553 0.8971 95° East 436 502 23,000  Level FlightAware ADS-B
Wed 01:56:11 AM 51.2495 0.9938 95° East 443 510 23,000  Level FlightAware ADS-B
Wed 01:56:42 AM 51.2437 1.0948 95° East 445 512 23,000  Level FlightAware ADS-B
Wed 01:57:13 AM 51.2376 1.1960 95° East 446 513 23,000  Level FlightAware ADS-B
Wed 01:57:44 AM 51.2314 1.2973 96° East 445 512 23,000  Level FlightAware ADS-B
Wed 01:58:12 AM 51.2258 1.3883 96° East 442 509 23,000  Level FlightAware ADS-B
Wed 01:58:43 AM 51.2158 1.4872 99° East 437 503 23,000  Level FlightAware ADS-B
Wed 01:59:18 AM 51.2044 1.5979 99° East 436 502 23,000  Level FlightAware ADS-B
Wed 01:59:57 AM 51.1921 1.7213 99° East 435 501 23,000  Level FlightAware ADS-B
Wed 02:00:37 AM 51.1793 1.8493 99° East 432 497 23,000  Level FlightAware UK
Wed 02:00:50 AM 51.1770 1.8780 99° East 442 509 23,000  Level FlightAware ADS-B (CYTZ)
Wed 02:01:31 AM 51.1630 2.0100 100° East 444 511 23,000  Level FlightAware ADS-B (CYTZ)
Wed 02:02:13 AM 51.1475 2.1595 100° East 432 497 23,000  Level FlightAware UK
Wed 02:02:23 AM 51.1450 2.1870 100° East 443 510 23,000  Level FlightAware ADS-B
Wed 02:03:01 AM 51.1311 2.3136 100° East 434 499 23,000  Level FlightAware UK
Wed 02:03:03 AM 51.1310 2.3120 100° East 444 511 23,000  Level FlightAware ADS-B
Wed 02:03:35 AM 51.1200 2.4180 100° East 444 511 23,000  Level FlightAware ADS-B
Wed 02:03:37 AM 51.1185 2.4297 100° East 436 502 23,000  Level FlightAware UK
Wed 02:04:21 AM 51.1040 2.5630 100° East 443 510 23,000  Level FlightAware ADS-B
Wed 02:04:25 AM 51.1020 2.5847 100° East 434 499 23,000  Level FlightAware UK
Wed 02:05:01 AM 51.1023 2.7029 100° East 438 504 23,000  Level FlightAware UK
Wed 02:05:04 AM 51.1030 2.7060 100° East 447 514 23,000  Level FlightAware ADS-B
Wed 02:05:47 AM 51.1220 2.8360 77° East 397 457 23,000  Level FlightAware ADS-B
Wed 02:06:30 AM 51.1390 2.9560 77° East 372 428 23,000  Level FlightAware ADS-B
Wed 02:07:11 AM 51.1540 3.0630 77° East 372 428 23,000 -250 Level FlightAware ADS-B
Wed 02:07:42 AM 51.1660 3.1480 77° East 373 429 22,700 -632 Descending FlightAware ADS-B
Wed 02:07:49 AM 51.1684 3.1696 77° East 356 410 22,600 -1,135 Descending FlightAware UK
Wed 02:08:19 AM 51.1797 3.2500 77° East 352 405 22,000 -857 Descending FlightAware UK
Wed 02:08:31 AM 51.1840 3.2750 77° East 365 420 22,000  Level FlightAware ADS-B
Wed 02:09:09 AM 51.1980 3.3750 77° East 362 417 22,000  Level FlightAware ADS-B
Wed 02:09:47 AM 51.2110 3.4740 78° East 362 417 22,000  Level FlightAware ADS-B
Wed 02:10:25 AM 51.2250 3.5760 78° East 365 420 22,000 -290 Level FlightAware ADS-B
Wed 02:10:49 AM 51.2360 3.6210 69° East 371 427 21,700 -1,277 Descending FlightAware ADS-B
Wed 02:11:12 AM 51.2670 3.6670 43° Northeast 369 425 21,000 -1,636 Descending FlightAware ADS-B
Wed 02:11:22 AM 51.2870 3.6780 19° North 360 414 20,800 -977 Descending FlightAware ADS-B
Wed 02:11:55 AM 51.3421 3.7015 19° North 324 373 20,300 -764 Descending FlightAware UK
Wed 02:12:17 AM 51.3730 3.7130 19° North 327 376 20,100 -716 Descending FlightAware ADS-B
Wed 02:13:02 AM 51.4350 3.7390 15° North 309 356 19,500 -897 Descending FlightAware ADS-B
Wed 02:13:44 AM 51.4940 3.7630 14° North 297 342 18,800 -935 Descending FlightAware ADS-B
Wed 02:14:19 AM 51.5360 3.7800 14° North 294 338 18,300 -1,169 Descending FlightAware ADS-B
Wed 02:15:01 AM 51.6010 3.7820 North 300 345 17,300 -1,310 Descending FlightAware ADS-B
Wed 02:15:46 AM 51.6590 3.7830 North 296 341 16,400 -1,185 Descending FlightAware ADS-B
Wed 02:16:22 AM 51.7110 3.7850 North 290 334 15,700 -1,200 Descending FlightAware ADS-B
Wed 02:17:01 AM 51.7630 3.7860 North 284 327 14,900 -1,215 Descending FlightAware ADS-B
Wed 02:17:41 AM 51.8160 3.7880 North 278 320 14,100 -1,185 Descending FlightAware ADS-B
Wed 02:18:22 AM 51.8670 3.7900 North 274 315 13,300 -1,200 Descending FlightAware ADS-B
Wed 02:19:06 AM 51.9230 3.7930 North 270 311 12,400 -1,216 Descending FlightAware ADS-B
Wed 02:19:36 AM 51.9580 3.8110 18° North 273 314 11,800 -1,143 Descending FlightAware ADS-B
Wed 02:19:48 AM 51.9680 3.8300 49° Northeast 272 313 11,600 -1,071 Descending FlightAware ADS-B
Wed 02:20:04 AM 51.9730 3.8590 74° East 268 308 11,300 -1,179 Descending FlightAware ADS-B
Wed 02:20:44 AM 51.9750 3.9400 88° East 265 305 10,500 -1,217 Descending FlightAware ADS-B
Wed 02:21:13 AM 51.9760 3.9980 88° East 263 303 9,900 -1,171 Descending FlightAware ADS-B
Wed 02:21:25 AM 51.9760 4.0210 90° East 261 300 9,700 -1,000 Descending FlightAware ADS-B
Wed 02:21:43 AM 51.9770 4.0560 87° East 257 296 9,400 -1,000 Descending FlightAware ADS-B
Wed 02:22:01 AM 51.9790 4.0910 85° East 253 291 9,100 -857 Descending FlightAware ADS-B
Wed 02:22:18 AM 51.9820 4.1210 81° East 257 296 8,900 -857 Descending FlightAware ADS-B
Wed 02:22:29 AM 51.9900 4.1400 56° Northeast 257 296 8,700 -750 Descending FlightAware ADS-B
Wed 02:22:58 AM 52.0170 4.1710 35° Northeast 258 297 8,400 -808 Descending FlightAware ADS-B
Wed 02:23:21 AM 52.0430 4.1860 20° North 258 297 8,000 -873 Descending FlightAware ADS-B
Wed 02:23:53 AM 52.0800 4.2070 19° North 259 298 7,600 -800 Descending FlightAware ADS-B
Wed 02:24:21 AM 52.1120 4.2250 19° North 259 298 7,200 -857 Descending FlightAware ADS-B
Wed 02:24:49 AM 52.1430 4.2430 20° North 259 298 6,800 -857 Descending FlightAware ADS-B
Wed 02:25:17 AM 52.1750 4.2630 21° North 259 298 6,400 -857 Descending FlightAware ADS-B
Wed 02:25:45 AM 52.2060 4.2820 21° North 258 297 6,000 -857 Descending FlightAware ADS-B
Wed 02:26:13 AM 52.2380 4.3010 20° North 259 298 5,600 -857 Descending FlightAware ADS-B
Wed 02:26:41 AM 52.2690 4.3190 20° North 257 296 5,200 -857 Descending FlightAware ADS-B
Wed 02:27:09 AM 52.3000 4.3370 20° North 255 293 4,800 -792 Descending FlightAware ADS-B
Wed 02:27:34 AM 52.3280 4.3540 20° North 254 292 4,500 -842 Descending FlightAware ADS-B
Wed 02:28:06 AM 52.3630 4.3790 24° Northeast 253 291 4,000 -875 Descending FlightAware ADS-B
Wed 02:28:22 AM 52.3790 4.3940 30° Northeast 253 291 3,800 -818 Descending FlightAware ADS-B
Wed 02:28:50 AM 52.4070 4.4210 30° Northeast 253 291 3,400 -964 Descending FlightAware ADS-B
Wed 02:29:18 AM 52.4350 4.4470 30° Northeast 248 285 2,900 -941 Descending FlightAware ADS-B
Wed 02:29:41 AM 52.4580 4.4700 31° Northeast 241 277 2,600 -764 Descending FlightAware ADS-B
Wed 02:30:13 AM 52.4880 4.5000 31° Northeast 235 270 2,200 -692 Descending FlightAware ADS-B
Wed 02:30:33 AM 52.5060 4.5170 30° Northeast 233 268 2,000 -250 Descending FlightAware ADS-B
Wed 02:31:01 AM 52.5330 4.5420 29° Northeast 233 268 2,000  Level FlightAware ADS-B
Wed 02:31:29 AM 52.5560 4.5680 34° Northeast 234 269 2,000  Level FlightAware ADS-B
Wed 02:31:41 AM 52.5630 4.5880 60° Northeast 236 272 2,000  Level FlightAware ADS-B
Wed 02:32:09 AM 52.5670 4.6380 82° East 240 276 2,000  Level FlightAware ADS-B
Wed 02:32:33 AM 52.5690 4.6810 86° East 224 258 2,000  Level FlightAware ADS-B
Wed 02:32:53 AM 52.5620 4.7120 110° East 206 237 2,000  Level FlightAware ADS-B
Wed 02:33:05 AM 52.5540 4.7200 149° Southeast 196 226 2,000  Level FlightAware ADS-B
Wed 02:33:33 AM 52.5290 4.7270 170° South 187 215 2,000  Level FlightAware ADS-B
Wed 02:34:01 AM 52.5030 4.7250 183° South 188 216 2,000  Level FlightAware ADS-B
Wed 02:34:29 AM 52.4790 4.7230 183° South 190 219 2,000  Level FlightAware ADS-B
Wed 02:34:47 AM 52.4640 4.7210 185° South 191 220 2,000 -682 Level FlightAware ADS-B
Wed 02:35:13 AM 52.4410 4.7190 183° South 194 223 1,500 -1,000 Descending FlightAware ADS-B
Wed 02:35:35 AM 52.4210 4.7170 183° South 177 204 1,200 -840 Descending FlightAware ADS-B
Wed 02:36:03 AM 52.4000 4.7150 183° South 167 192 800 -842 Descending FlightAware ADS-B
Wed 02:36:32 AM 52.3770 4.7130 183° South 153 176 400 -824 Descending FlightAware ADS-B
Wed 02:36:54 AM 52.3620 4.7120 182° South 152 175 100 -818 Descending FlightAware ADS-B
Wed 02:37:25 AM 52.3470 4.7110 182° South 110 127 -194 Descending FlightAware ADS-B
Wed 02:37:40 AM 52.3400 4.7100 185° South 47 54  Level FlightAware ADS-B
Wed 02:38:00 AM 52.3370 4.7120 158° South 33 38  Level FlightAware ADS-B
Wed 02:38:15 AM 52.3350 4.7120 180° South 28 32  Level FlightAware ADS-B
Wed 02:38:25 AM 52.3330 4.7120 180° South 28 32  Level FlightAware ADS-B
Wed 02:38:51 AM 52.3310 4.7140 149° Southeast 21 24  Level FlightAware ADS-B
Wed 02:39:22 AM 52.3300 4.7190 108° East 24 28  Level FlightAware ADS-B
Wed 02:39:54 AM 52.3280 4.7240 123° Southeast 25 29  Level FlightAware ADS-B
Wed 02:40:22 AM 52.3250 4.7280 141° Southeast 27 31  Level FlightAware ADS-B
Wed 02:40:49 AM 52.3220 4.7310 149° Southeast 24 28  Level FlightAware ADS-B
Wed 02:41:17 AM 52.3200 4.7340 137° Southeast 22 25  Level FlightAware ADS-B
Wed 02:41:30 AM 52.3190 4.7350 149° Southeast 25 29  Level FlightAware ADS-B
Wed 02:41:58 AM 52.3160 4.7340 192° South 27 31  Level FlightAware ADS-B
Wed 02:42:42 AM 52.3100 4.7340 180° South 28 32  Level FlightAware ADS-B
Wed 02:43:13 AM 52.3060 4.7330 189° South 27 31  Level FlightAware ADS-B
Wed 02:43:37 AM 52.3030 4.7330 180° South 27 31  Level FlightAware ADS-B
Wed 02:44:45 AM 52.3000 4.7390 129° Southeast 24 28  Level FlightAware ADS-B
Wed 02:44:55 AM 52.3010 4.7400 31° Northeast 24 28  Level FlightAware ADS-B
Wed 02:45:26 AM 52.3040 4.7420 22° Northeast 26 30  Level FlightAware ADS-B
Wed 02:45:55 AM 52.3080 4.7420 360° North 29 33  Level FlightAware ADS-B
Wed 02:46:20 AM 52.3120 4.7430 North 29 33  Level FlightAware ADS-B
Wed 02:46:50 AM 52.3140 4.7440 17° North 19 22  Level FlightAware ADS-B
Wed 02:47:35 AM 52.3140 4.7520 90° East 21 24  Level FlightAware ADS-B
Wed 02:47:58 AM 52.3140 4.7570 90° East 28 32  Level FlightAware ADS-B
Wed 02:48:25 AM 52.3150 4.7610 68° East 27 31  Level FlightAware ADS-B
Wed 02:49:00 AM 52.3150 4.7690 90° East 21 24  Level FlightAware ADS-B
Wed 02:49:24 AM 52.3140 4.7720 119° Southeast 16 18  Level FlightAware ADS-B
Wed 02:49:48 AM 52.3130 4.7710 211° Southwest 20 23  Level FlightAware ADS-B
Wed 02:49:56 AM 52.3120 4.7700 211° Southwest 19 22  Level FlightAware ADS-B
Wed 02:50:28 AM 52.3100 4.7680 211° Southwest 27 31  Level FlightAware ADS-B
Wed 02:51:22 AM 52.3090 4.7690 149° Southeast  Level FlightAware ADS-B
Wed 02:54:00 AM 52.3086 4.7639 263° West  Level Estimated
Wed 02:55:00 AM 52.3086 4.7639 348° North  Level Estimated
Wed 02:56:00 AM 52.3086 4.7639 348° North  Level Estimated

Login

Don't have an account? Register now (free) for customized features, flight alerts, and more!